sensor_id;sensor_type;location;lat;lon;timestamp;pressure;altitude;pressure_sealevel;temperature;humidity
15880;BME280;61999;51.514;14.614;2023-04-22T00:01:29;99871.31;;;7.06;34.84
15880;BME280;61999;51.514;14.614;2023-04-22T00:03:57;99871.53;;;7.03;34.53
15880;BME280;61999;51.514;14.614;2023-04-22T00:06:26;99877.34;;;6.94;35.02
15880;BME280;61999;51.514;14.614;2023-04-22T00:08:55;99874.53;;;6.97;34.36
15880;BME280;61999;51.514;14.614;2023-04-22T00:11:23;99877.56;;;6.91;34.85
15880;BME280;61999;51.514;14.614;2023-04-22T00:13:52;99872.31;;;6.91;34.92
15880;BME280;61999;51.514;14.614;2023-04-22T00:16:20;99869.00;;;6.88;34.70
15880;BME280;61999;51.514;14.614;2023-04-22T00:18:48;99869.38;;;6.82;34.81
15880;BME280;61999;51.514;14.614;2023-04-22T00:21:16;99867.72;;;6.81;34.90
15880;BME280;61999;51.514;14.614;2023-04-22T00:23:44;99864.53;;;6.76;34.96
15880;BME280;61999;51.514;14.614;2023-04-22T00:26:14;99867.25;;;6.75;34.79
15880;BME280;61999;51.514;14.614;2023-04-22T00:28:42;99864.00;;;6.71;34.77
15880;BME280;61999;51.514;14.614;2023-04-22T00:31:10;99858.03;;;6.69;34.74
15880;BME280;61999;51.514;14.614;2023-04-22T00:33:38;99856.53;;;6.65;34.57
15880;BME280;61999;51.514;14.614;2023-04-22T00:36:06;99848.16;;;6.60;34.93
15880;BME280;61999;51.514;14.614;2023-04-22T00:38:34;99857.97;;;6.56;35.39
15880;BME280;61999;51.514;14.614;2023-04-22T00:41:03;99853.34;;;6.47;35.60
15880;BME280;61999;51.514;14.614;2023-04-22T00:43:33;99854.19;;;6.48;35.54
15880;BME280;61999;51.514;14.614;2023-04-22T00:46:01;99851.75;;;6.44;35.58
15880;BME280;61999;51.514;14.614;2023-04-22T00:48:29;99849.16;;;6.44;35.53
15880;BME280;61999;51.514;14.614;2023-04-22T00:50:58;99854.59;;;6.41;35.13
15880;BME280;61999;51.514;14.614;2023-04-22T00:53:26;99849.56;;;6.38;35.42
15880;BME280;61999;51.514;14.614;2023-04-22T00:55:54;99852.47;;;6.34;35.73
15880;BME280;61999;51.514;14.614;2023-04-22T00:58:28;99843.97;;;6.30;35.66
15880;BME280;61999;51.514;14.614;2023-04-22T01:00:57;99841.56;;;6.27;35.80
15880;BME280;61999;51.514;14.614;2023-04-22T01:03:27;99841.75;;;6.24;35.60
15880;BME280;61999;51.514;14.614;2023-04-22T01:05:57;99848.03;;;6.21;35.33
15880;BME280;61999;51.514;14.614;2023-04-22T01:08:27;99841.94;;;6.21;35.62
15880;BME280;61999;51.514;14.614;2023-04-22T01:10:56;99844.03;;;6.16;35.50
15880;BME280;61999;51.514;14.614;2023-04-22T01:13:24;99839.00;;;6.13;35.40
15880;BME280;61999;51.514;14.614;2023-04-22T01:15:52;99842.63;;;6.10;35.57
15880;BME280;61999;51.514;14.614;2023-04-22T01:18:22;99842.09;;;6.05;35.68
15880;BME280;61999;51.514;14.614;2023-04-22T01:20:50;99842.28;;;6.02;36.06
15880;BME280;61999;51.514;14.614;2023-04-22T01:23:21;99843.34;;;5.99;35.95
15880;BME280;61999;51.514;14.614;2023-04-22T01:25:49;99836.63;;;5.95;35.78
15880;BME280;61999;51.514;14.614;2023-04-22T01:28:17;99841.28;;;5.90;36.08
15880;BME280;61999;51.514;14.614;2023-04-22T01:30:45;99845.81;;;5.88;36.19
15880;BME280;61999;51.514;14.614;2023-04-22T01:33:15;99835.53;;;5.85;35.96
15880;BME280;61999;51.514;14.614;2023-04-22T01:35:44;99840.84;;;5.84;36.05
15880;BME280;61999;51.514;14.614;2023-04-22T01:38:12;99835.69;;;5.82;36.16
15880;BME280;61999;51.514;14.614;2023-04-22T01:40:42;99831.59;;;5.78;36.26
15880;BME280;61999;51.514;14.614;2023-04-22T01:43:09;99822.28;;;5.74;36.11
15880;BME280;61999;51.514;14.614;2023-04-22T01:45:37;99825.09;;;5.71;36.57
15880;BME280;61999;51.514;14.614;2023-04-22T01:48:06;99822.81;;;5.65;36.68
15880;BME280;61999;51.514;14.614;2023-04-22T01:50:34;99826.38;;;5.64;36.84
15880;BME280;61999;51.514;14.614;2023-04-22T01:53:02;99813.56;;;5.59;36.77
15880;BME280;61999;51.514;14.614;2023-04-22T01:55:30;99825.06;;;5.57;36.85
15880;BME280;61999;51.514;14.614;2023-04-22T01:58:03;99813.13;;;5.52;36.64
15880;BME280;61999;51.514;14.614;2023-04-22T02:00:32;99813.31;;;5.49;36.77
15880;BME280;61999;51.514;14.614;2023-04-22T02:02:59;99814.53;;;5.44;37.55
15880;BME280;61999;51.514;14.614;2023-04-22T02:05:27;99818.94;;;5.43;37.27
15880;BME280;61999;51.514;14.614;2023-04-22T02:07:55;99805.09;;;5.41;37.32
15880;BME280;61999;51.514;14.614;2023-04-22T02:10:23;99812.38;;;5.36;37.34
15880;BME280;61999;51.514;14.614;2023-04-22T02:12:51;99814.47;;;5.31;37.94
15880;BME280;61999;51.514;14.614;2023-04-22T02:15:21;99820.53;;;5.31;37.30
15880;BME280;61999;51.514;14.614;2023-04-22T02:17:49;99811.94;;;5.29;37.57
15880;BME280;61999;51.514;14.614;2023-04-22T02:20:17;99807.72;;;5.27;37.44
15880;BME280;61999;51.514;14.614;2023-04-22T02:22:45;99808.75;;;5.24;37.79
15880;BME280;61999;51.514;14.614;2023-04-22T02:25:14;99797.66;;;5.21;37.79
15880;BME280;61999;51.514;14.614;2023-04-22T02:27:42;99805.56;;;5.19;37.66
15880;BME280;61999;51.514;14.614;2023-04-22T02:30:10;99791.88;;;5.16;37.82
15880;BME280;61999;51.514;14.614;2023-04-22T02:32:39;99795.41;;;5.15;37.76
15880;BME280;61999;51.514;14.614;2023-04-22T02:35:09;99789.63;;;5.09;38.39
15880;BME280;61999;51.514;14.614;2023-04-22T02:37:37;99798.41;;;5.08;38.15
15880;BME280;61999;51.514;14.614;2023-04-22T02:40:07;99790.56;;;5.08;38.27
15880;BME280;61999;51.514;14.614;2023-04-22T02:42:35;99786.44;;;5.04;38.24
15880;BME280;61999;51.514;14.614;2023-04-22T02:45:04;99784.78;;;5.03;38.11
15880;BME280;61999;51.514;14.614;2023-04-22T02:47:33;99781.41;;;5.01;37.84
15880;BME280;61999;51.514;14.614;2023-04-22T02:50:02;99784.97;;;5.00;38.01
15880;BME280;61999;51.514;14.614;2023-04-22T02:52:32;99782.53;;;4.97;37.92
15880;BME280;61999;51.514;14.614;2023-04-22T02:55:00;99783.63;;;4.93;37.81
15880;BME280;61999;51.514;14.614;2023-04-22T02:57:28;99785.53;;;4.91;37.98
15880;BME280;61999;51.514;14.614;2023-04-22T02:59:56;99780.50;;;4.88;38.12
15880;BME280;61999;51.514;14.614;2023-04-22T03:02:24;99778.97;;;4.84;38.04
15880;BME280;61999;51.514;14.614;2023-04-22T03:04:52;99784.38;;;4.81;38.18
15880;BME280;61999;51.514;14.614;2023-04-22T03:07:22;99782.72;;;4.80;38.12
15880;BME280;61999;51.514;14.614;2023-04-22T03:09:50;99778.69;;;4.74;38.78
15880;BME280;61999;51.514;14.614;2023-04-22T03:12:18;99784.94;;;4.72;38.81
15880;BME280;61999;51.514;14.614;2023-04-22T03:14:46;99784.28;;;4.68;38.52
15880;BME280;61999;51.514;14.614;2023-04-22T03:17:14;99779.97;;;4.67;38.89
15880;BME280;61999;51.514;14.614;2023-04-22T03:19:42;99776.72;;;4.63;38.78
15880;BME280;61999;51.514;14.614;2023-04-22T03:22:09;99776.91;;;4.60;38.83
15880;BME280;61999;51.514;14.614;2023-04-22T03:24:39;99779.69;;;4.57;39.06
15880;BME280;61999;51.514;14.614;2023-04-22T03:27:08;99773.91;;;4.52;39.51
15880;BME280;61999;51.514;14.614;2023-04-22T03:29:36;99773.09;;;4.50;39.15
15880;BME280;61999;51.514;14.614;2023-04-22T03:32:04;99775.91;;;4.47;39.23
15880;BME280;61999;51.514;14.614;2023-04-22T03:34:32;99775.16;;;4.45;39.28
15880;BME280;61999;51.514;14.614;2023-04-22T03:37:02;99780.53;;;4.42;39.55
15880;BME280;61999;51.514;14.614;2023-04-22T03:39:30;99775.50;;;4.39;39.47
15880;BME280;61999;51.514;14.614;2023-04-22T03:41:59;99780.91;;;4.36;39.80
15880;BME280;61999;51.514;14.614;2023-04-22T03:44:28;99773.34;;;4.31;39.71
15880;BME280;61999;51.514;14.614;2023-04-22T03:46:56;99778.66;;;4.30;39.70
15880;BME280;61999;51.514;14.614;2023-04-22T03:49:24;99773.59;;;4.27;39.89
15880;BME280;61999;51.514;14.614;2023-04-22T03:51:51;99780.69;;;4.25;39.93
15880;BME280;61999;51.514;14.614;2023-04-22T03:54:20;99772.94;;;4.23;39.66
15880;BME280;61999;51.514;14.614;2023-04-22T03:56:48;99777.50;;;4.19;39.96
15880;BME280;61999;51.514;14.614;2023-04-22T03:59:17;99781.03;;;4.18;40.10
15880;BME280;61999;51.514;14.614;2023-04-22T04:01:46;99784.66;;;4.16;40.19
15880;BME280;61999;51.514;14.614;2023-04-22T04:04:14;99787.25;;;4.16;40.24
15880;BME280;61999;51.514;14.614;2023-04-22T04:06:42;99783.06;;;4.13;40.22
15880;BME280;61999;51.514;14.614;2023-04-22T04:09:10;99778.88;;;4.11;40.50
15880;BME280;61999;51.514;14.614;2023-04-22T04:11:38;99783.50;;;4.06;40.87
15880;BME280;61999;51.514;14.614;2023-04-22T04:14:06;99781.75;;;4.06;40.71
15880;BME280;61999;51.514;14.614;2023-04-22T04:16:36;99788.91;;;4.03;40.77
15880;BME280;61999;51.514;14.614;2023-04-22T04:19:05;99785.47;;;4.02;41.19
15880;BME280;61999;51.514;14.614;2023-04-22T04:21:33;99796.03;;;3.99;41.02
15880;BME280;61999;51.514;14.614;2023-04-22T04:24:02;99796.03;;;3.99;41.47
15880;BME280;61999;51.514;14.614;2023-04-22T04:26:30;99783.00;;;3.99;41.26
15880;BME280;61999;51.514;14.614;2023-04-22T04:28:59;99793.34;;;4.01;41.09
15880;BME280;61999;51.514;14.614;2023-04-22T04:31:28;99794.19;;;4.01;40.92
15880;BME280;61999;51.514;14.614;2023-04-22T04:33:57;99786.28;;;4.03;41.20
15880;BME280;61999;51.514;14.614;2023-04-22T04:36:26;99785.78;;;3.96;41.79
15880;BME280;61999;51.514;14.614;2023-04-22T04:38:54;99782.44;;;3.94;42.28
15880;BME280;61999;51.514;14.614;2023-04-22T04:41:22;99789.50;;;3.92;42.15
15880;BME280;61999;51.514;14.614;2023-04-22T04:43:52;99787.66;;;3.94;41.97
15880;BME280;61999;51.514;14.614;2023-04-22T04:46:20;99787.72;;;3.92;42.23
15880;BME280;61999;51.514;14.614;2023-04-22T04:48:49;99791.88;;;3.96;42.02
15880;BME280;61999;51.514;14.614;2023-04-22T04:51:18;99789.16;;;3.98;42.27
15880;BME280;61999;51.514;14.614;2023-04-22T04:53:46;99789.91;;;4.00;41.92
15880;BME280;61999;51.514;14.614;2023-04-22T04:56:14;99797.75;;;4.00;42.33
15880;BME280;61999;51.514;14.614;2023-04-22T04:58:42;99794.19;;;4.01;42.32
15880;BME280;61999;51.514;14.614;2023-04-22T05:01:10;99791.34;;;4.06;42.63
15880;BME280;61999;51.514;14.614;2023-04-22T05:03:38;99799.06;;;4.07;42.73
15880;BME280;61999;51.514;14.614;2023-04-22T05:06:06;99792.06;;;4.08;42.82
15880;BME280;61999;51.514;14.614;2023-04-22T05:08:37;99784.25;;;4.08;43.19
15880;BME280;61999;51.514;14.614;2023-04-22T05:11:05;99796.19;;;4.12;43.09
15880;BME280;61999;51.514;14.614;2023-04-22T05:13:33;99795.19;;;4.14;42.87
15880;BME280;61999;51.514;14.614;2023-04-22T05:16:01;99794.06;;;4.18;43.35
15880;BME280;61999;51.514;14.614;2023-04-22T05:18:29;99801.72;;;4.22;43.14
15880;BME280;61999;51.514;14.614;2023-04-22T05:20:57;99796.31;;;4.25;43.15
15880;BME280;61999;51.514;14.614;2023-04-22T05:23:25;99803.06;;;4.29;43.01
15880;BME280;61999;51.514;14.614;2023-04-22T05:25:55;99794.88;;;4.35;43.29
15880;BME280;61999;51.514;14.614;2023-04-22T05:28:23;99793.78;;;4.39;43.33
15880;BME280;61999;51.514;14.614;2023-04-22T05:30:51;99793.03;;;4.37;43.83
15880;BME280;61999;51.514;14.614;2023-04-22T05:33:19;99793.44;;;4.45;43.51
15880;BME280;61999;51.514;14.614;2023-04-22T05:35:47;99796.44;;;4.53;43.38
15880;BME280;61999;51.514;14.614;2023-04-22T05:38:16;99796.13;;;4.59;43.14
15880;BME280;61999;51.514;14.614;2023-04-22T05:40:44;99798.72;;;4.59;43.92
15880;BME280;61999;51.514;14.614;2023-04-22T05:43:14;99799.09;;;4.68;43.07
15880;BME280;61999;51.514;14.614;2023-04-22T05:45:42;99802.38;;;4.71;43.54
15880;BME280;61999;51.514;14.614;2023-04-22T05:48:10;99797.88;;;4.73;43.76
15880;BME280;61999;51.514;14.614;2023-04-22T05:50:38;99796.69;;;4.79;44.37
15880;BME280;61999;51.514;14.614;2023-04-22T05:53:06;99792.97;;;4.83;43.76
15880;BME280;61999;51.514;14.614;2023-04-22T05:55:34;99791.47;;;4.93;44.14
15880;BME280;61999;51.514;14.614;2023-04-22T05:58:02;99802.31;;;5.01;44.57
15880;BME280;61999;51.514;14.614;2023-04-22T06:00:31;99793.25;;;5.07;43.90
15880;BME280;61999;51.514;14.614;2023-04-22T06:02:59;99795.78;;;5.08;44.17
15880;BME280;61999;51.514;14.614;2023-04-22T06:05:27;99791.47;;;5.22;43.26
15880;BME280;61999;51.514;14.614;2023-04-22T06:07:55;99789.75;;;5.22;43.12
15880;BME280;61999;51.514;14.614;2023-04-22T06:10:23;99791.84;;;5.30;43.29
15880;BME280;61999;51.514;14.614;2023-04-22T06:12:51;99794.19;;;5.35;43.50
15880;BME280;61999;51.514;14.614;2023-04-22T06:15:19;99803.25;;;5.43;43.15
15880;BME280;61999;51.514;14.614;2023-04-22T06:17:49;99804.53;;;5.50;43.14
15880;BME280;61999;51.514;14.614;2023-04-22T06:20:17;99804.81;;;5.60;42.86
15880;BME280;61999;51.514;14.614;2023-04-22T06:22:45;99798.19;;;5.69;42.65
15880;BME280;61999;51.514;14.614;2023-04-22T06:25:12;99799.47;;;5.76;42.79
15880;BME280;61999;51.514;14.614;2023-04-22T06:27:40;99807.22;;;5.77;42.67
15880;BME280;61999;51.514;14.614;2023-04-22T06:30:09;99803.00;;;5.89;43.07
15880;BME280;61999;51.514;14.614;2023-04-22T06:32:37;99804.19;;;5.98;43.52
15880;BME280;61999;51.514;14.614;2023-04-22T06:35:08;99802.75;;;6.07;42.90
15880;BME280;61999;51.514;14.614;2023-04-22T06:37:36;99798.41;;;6.20;42.55
15880;BME280;61999;51.514;14.614;2023-04-22T06:40:05;99796.13;;;6.28;42.82
15880;BME280;61999;51.514;14.614;2023-04-22T06:42:34;99795.72;;;6.34;42.66
15880;BME280;61999;51.514;14.614;2023-04-22T06:45:02;99795.53;;;6.37;41.93
15880;BME280;61999;51.514;14.614;2023-04-22T06:47:30;99790.06;;;6.40;42.57
15880;BME280;61999;51.514;14.614;2023-04-22T06:49:58;99795.44;;;6.52;42.04
15880;BME280;61999;51.514;14.614;2023-04-22T06:52:27;99794.81;;;6.61;41.89
15880;BME280;61999;51.514;14.614;2023-04-22T06:54:55;99795.16;;;6.69;41.82
15880;BME280;61999;51.514;14.614;2023-04-22T06:57:23;99794.56;;;6.78;41.67
15880;BME280;61999;51.514;14.614;2023-04-22T06:59:51;99794.13;;;6.84;41.96
15880;BME280;61999;51.514;14.614;2023-04-22T07:02:20;99797.81;;;6.95;42.08
15880;BME280;61999;51.514;14.614;2023-04-22T07:04:48;99788.34;;;7.05;42.00
15880;BME280;61999;51.514;14.614;2023-04-22T07:07:16;99788.25;;;7.19;41.94
15880;BME280;61999;51.514;14.614;2023-04-22T07:09:46;99785.50;;;7.33;42.31
15880;BME280;61999;51.514;14.614;2023-04-22T07:12:14;99787.75;;;7.51;42.13
15880;BME280;61999;51.514;14.614;2023-04-22T07:14:43;99782.72;;;7.61;42.00
15880;BME280;61999;51.514;14.614;2023-04-22T07:17:11;99781.59;;;7.76;41.53
15880;BME280;61999;51.514;14.614;2023-04-22T07:19:39;99774.94;;;7.96;41.64
15880;BME280;61999;51.514;14.614;2023-04-22T07:22:07;99778.34;;;8.09;41.33
15880;BME280;61999;51.514;14.614;2023-04-22T07:24:35;99785.22;;;8.23;41.42
15880;BME280;61999;51.514;14.614;2023-04-22T07:27:06;99786.59;;;8.40;41.03
15880;BME280;61999;51.514;14.614;2023-04-22T07:29:34;99783.03;;;8.52;40.79
15880;BME280;61999;51.514;14.614;2023-04-22T07:32:02;99785.81;;;8.73;40.49
15880;BME280;61999;51.514;14.614;2023-04-22T07:34:29;99789.47;;;8.83;40.56
15880;BME280;61999;51.514;14.614;2023-04-22T07:36:57;99779.91;;;9.05;40.77
15880;BME280;61999;51.514;14.614;2023-04-22T07:39:26;99782.88;;;9.23;40.68
15880;BME280;61999;51.514;14.614;2023-04-22T07:41:54;99783.84;;;9.44;40.59
15880;BME280;61999;51.514;14.614;2023-04-22T07:44:24;99777.97;;;9.63;40.16
15880;BME280;61999;51.514;14.614;2023-04-22T07:46:52;99774.47;;;9.74;39.23
15880;BME280;61999;51.514;14.614;2023-04-22T07:49:21;99774.59;;;9.84;37.10
15880;BME280;61999;51.514;14.614;2023-04-22T07:51:50;99778.75;;;9.97;37.80
15880;BME280;61999;51.514;14.614;2023-04-22T07:54:18;99772.69;;;10.18;36.60
15880;BME280;61999;51.514;14.614;2023-04-22T07:56:46;99771.66;;;10.30;36.00
15880;BME280;61999;51.514;14.614;2023-04-22T07:59:14;99769.53;;;10.45;37.17
15880;BME280;61999;51.514;14.614;2023-04-22T08:01:43;99771.97;;;10.69;36.71
15880;BME280;61999;51.514;14.614;2023-04-22T08:04:12;99773.81;;;10.57;32.40
15880;BME280;61999;51.514;14.614;2023-04-22T08:06:40;99773.72;;;10.89;34.92
15880;BME280;61999;51.514;14.614;2023-04-22T08:09:08;99770.75;;;11.04;33.97
15880;BME280;61999;51.514;14.614;2023-04-22T08:11:36;99776.13;;;11.33;32.77
15880;BME280;61999;51.514;14.614;2023-04-22T08:14:04;99770.13;;;11.52;33.01
15880;BME280;61999;51.514;14.614;2023-04-22T08:16:32;99762.09;;;11.82;34.13
15880;BME280;61999;51.514;14.614;2023-04-22T08:19:01;99772.97;;;11.89;33.24
15880;BME280;61999;51.514;14.614;2023-04-22T08:21:29;99764.59;;;12.13;34.04
15880;BME280;61999;51.514;14.614;2023-04-22T08:23:58;99765.00;;;11.79;31.54
15880;BME280;61999;51.514;14.614;2023-04-22T08:26:26;99769.75;;;12.05;30.17
15880;BME280;61999;51.514;14.614;2023-04-22T08:28:54;99763.50;;;11.87;29.56
15880;BME280;61999;51.514;14.614;2023-04-22T08:31:22;99766.56;;;12.31;29.90
15880;BME280;61999;51.514;14.614;2023-04-22T08:33:50;99768.22;;;12.51;30.01
15880;BME280;61999;51.514;14.614;2023-04-22T08:36:20;99762.00;;;12.89;29.51
15880;BME280;61999;51.514;14.614;2023-04-22T08:38:51;99762.31;;;12.86;29.46
15880;BME280;61999;51.514;14.614;2023-04-22T08:41:21;99755.41;;;12.56;29.81
15880;BME280;61999;51.514;14.614;2023-04-22T08:43:52;99758.59;;;13.16;28.80
15880;BME280;61999;51.514;14.614;2023-04-22T08:46:21;99762.47;;;13.68;28.53
15880;BME280;61999;51.514;14.614;2023-04-22T08:48:50;99751.91;;;14.03;28.06
15880;BME280;61999;51.514;14.614;2023-04-22T08:51:20;99751.19;;;13.93;28.41
15880;BME280;61999;51.514;14.614;2023-04-22T08:53:49;99757.59;;;13.45;26.78
15880;BME280;61999;51.514;14.614;2023-04-22T08:56:17;99761.06;;;13.46;27.37
15880;BME280;61999;51.514;14.614;2023-04-22T08:58:45;99754.28;;;14.24;27.51
15880;BME280;61999;51.514;14.614;2023-04-22T09:01:14;99755.47;;;14.74;27.35
15880;BME280;61999;51.514;14.614;2023-04-22T09:03:44;99745.53;;;15.10;27.23
15880;BME280;61999;51.514;14.614;2023-04-22T09:06:12;99744.69;;;15.52;26.78
15880;BME280;61999;51.514;14.614;2023-04-22T09:08:42;99752.41;;;14.95;26.60
15880;BME280;61999;51.514;14.614;2023-04-22T09:11:10;99750.47;;;15.31;26.55
15880;BME280;61999;51.514;14.614;2023-04-22T09:13:39;99748.38;;;15.51;24.69
15880;BME280;61999;51.514;14.614;2023-04-22T09:16:07;99753.72;;;15.68;25.19
15880;BME280;61999;51.514;14.614;2023-04-22T09:18:40;99742.50;;;16.23;24.39
15880;BME280;61999;51.514;14.614;2023-04-22T09:21:08;99742.97;;;16.26;24.57
15880;BME280;61999;51.514;14.614;2023-04-22T09:23:46;99735.13;;;16.74;25.32
15880;BME280;61999;51.514;14.614;2023-04-22T09:26:17;99742.84;;;17.08;25.56
15880;BME280;61999;51.514;14.614;2023-04-22T09:28:50;99739.53;;;17.46;25.09
15880;BME280;61999;51.514;14.614;2023-04-22T09:31:20;99731.63;;;17.60;23.88
15880;BME280;61999;51.514;14.614;2023-04-22T09:33:51;99724.72;;;17.04;23.42
15880;BME280;61999;51.514;14.614;2023-04-22T09:36:25;99723.13;;;17.88;22.56
15880;BME280;61999;51.514;14.614;2023-04-22T09:38:57;99719.81;;;17.86;22.91
15880;BME280;61999;51.514;14.614;2023-04-22T09:41:27;99730.72;;;17.99;22.48
15880;BME280;61999;51.514;14.614;2023-04-22T09:43:55;99717.34;;;17.22;22.37
15880;BME280;61999;51.514;14.614;2023-04-22T09:46:26;99712.34;;;16.71;22.04
15880;BME280;61999;51.514;14.614;2023-04-22T09:48:56;99715.28;;;16.93;21.90
15880;BME280;61999;51.514;14.614;2023-04-22T09:51:26;99716.19;;;18.02;21.53
15880;BME280;61999;51.514;14.614;2023-04-22T09:54:01;99715.59;;;18.82;21.63
15880;BME280;61999;51.514;14.614;2023-04-22T09:56:46;99704.00;;;19.05;20.34
15880;BME280;61999;51.514;14.614;2023-04-22T09:59:19;99699.56;;;19.48;19.99
15880;BME280;61999;51.514;14.614;2023-04-22T10:01:51;99707.50;;;19.99;19.39
15880;BME280;61999;51.514;14.614;2023-04-22T10:04:19;99695.28;;;20.18;19.07
15880;BME280;61999;51.514;14.614;2023-04-22T10:06:49;99698.09;;;20.10;18.76
15880;BME280;61999;51.514;14.614;2023-04-22T10:09:21;99688.16;;;20.25;18.69
15880;BME280;61999;51.514;14.614;2023-04-22T10:11:52;99690.91;;;20.39;17.63
15880;BME280;61999;51.514;14.614;2023-04-22T10:14:21;99695.50;;;20.45;17.51
15880;BME280;61999;51.514;14.614;2023-04-22T10:16:55;99690.38;;;20.85;16.96
15880;BME280;61999;51.514;14.614;2023-04-22T10:19:26;99682.63;;;20.96;17.46
15880;BME280;61999;51.514;14.614;2023-04-22T10:21:57;99685.66;;;20.87;17.58
15880;BME280;61999;51.514;14.614;2023-04-22T10:24:29;99678.69;;;20.58;18.16
15880;BME280;61999;51.514;14.614;2023-04-22T10:27:03;99675.38;;;21.45;17.35
15880;BME280;61999;51.514;14.614;2023-04-22T10:29:39;99676.63;;;21.69;16.28
15880;BME280;61999;51.514;14.614;2023-04-22T10:32:24;99680.91;;;20.82;15.86
15880;BME280;61999;51.514;14.614;2023-04-22T10:35:11;99676.63;;;21.56;16.65
15880;BME280;61999;51.514;14.614;2023-04-22T10:37:41;99670.88;;;22.32;16.57
15880;BME280;61999;51.514;14.614;2023-04-22T10:40:15;99679.06;;;22.77;15.30
15880;BME280;61999;51.514;14.614;2023-04-22T10:42:49;99677.88;;;21.60;16.13
15880;BME280;61999;51.514;14.614;2023-04-22T10:45:18;99671.72;;;21.93;15.68
15880;BME280;61999;51.514;14.614;2023-04-22T10:47:50;99670.44;;;21.82;16.49
15880;BME280;61999;51.514;14.614;2023-04-22T10:50:22;99662.00;;;21.72;15.66
15880;BME280;61999;51.514;14.614;2023-04-22T10:52:55;99655.88;;;21.16;16.10
15880;BME280;61999;51.514;14.614;2023-04-22T10:55:50;99647.75;;;22.18;15.94
15880;BME280;61999;51.514;14.614;2023-04-22T10:58:19;99648.59;;;22.12;16.52
15880;BME280;61999;51.514;14.614;2023-04-22T11:00:48;99638.63;;;21.59;16.54
15880;BME280;61999;51.514;14.614;2023-04-22T11:03:29;99637.13;;;23.14;15.89
15880;BME280;61999;51.514;14.614;2023-04-22T11:06:13;99639.00;;;24.64;15.26
15880;BME280;61999;51.514;14.614;2023-04-22T11:08:44;99634.22;;;24.66;13.80
15880;BME280;61999;51.514;14.614;2023-04-22T11:11:16;99626.94;;;24.67;14.59
15880;BME280;61999;51.514;14.614;2023-04-22T11:13:47;99633.19;;;25.28;14.35
15880;BME280;61999;51.514;14.614;2023-04-22T11:16:20;99626.78;;;24.62;13.96
15880;BME280;61999;51.514;14.614;2023-04-22T11:18:49;99615.94;;;24.31;14.24
15880;BME280;61999;51.514;14.614;2023-04-22T11:21:17;99624.75;;;25.78;13.80
15880;BME280;61999;51.514;14.614;2023-04-22T11:23:49;99625.78;;;25.65;13.02
15880;BME280;61999;51.514;14.614;2023-04-22T11:26:32;99623.47;;;26.04;12.67
15880;BME280;61999;51.514;14.614;2023-04-22T11:29:01;99623.34;;;25.87;11.94
15880;BME280;61999;51.514;14.614;2023-04-22T11:31:29;99612.06;;;25.90;12.75
15880;BME280;61999;51.514;14.614;2023-04-22T11:33:58;99617.50;;;26.14;12.98
15880;BME280;61999;51.514;14.614;2023-04-22T11:36:26;99623.59;;;25.32;12.53
15880;BME280;61999;51.514;14.614;2023-04-22T11:38:54;99613.81;;;24.34;13.66
15880;BME280;61999;51.514;14.614;2023-04-22T11:41:24;99611.22;;;24.02;13.61
15880;BME280;61999;51.514;14.614;2023-04-22T11:43:51;99611.03;;;25.26;12.91
15880;BME280;61999;51.514;14.614;2023-04-22T11:46:28;99606.44;;;24.96;12.60
15880;BME280;61999;51.514;14.614;2023-04-22T11:49:12;99604.09;;;23.32;14.01
15880;BME280;61999;51.514;14.614;2023-04-22T11:51:52;99594.47;;;23.18;14.39
15880;BME280;61999;51.514;14.614;2023-04-22T11:54:33;99597.16;;;24.00;13.18
15880;BME280;61999;51.514;14.614;2023-04-22T11:57:06;99602.34;;;26.13;13.13
15880;BME280;61999;51.514;14.614;2023-04-22T11:59:36;99597.50;;;27.70;11.74
15880;BME280;61999;51.514;14.614;2023-04-22T12:02:05;99599.66;;;28.45;11.88
15880;BME280;61999;51.514;14.614;2023-04-22T12:04:36;99599.31;;;29.35;11.02
15880;BME280;61999;51.514;14.614;2023-04-22T12:07:05;99604.47;;;29.74;10.67
15880;BME280;61999;51.514;14.614;2023-04-22T12:09:33;99592.75;;;30.11;9.45
15880;BME280;61999;51.514;14.614;2023-04-22T12:12:04;99601.28;;;30.24;9.87
15880;BME280;61999;51.514;14.614;2023-04-22T12:14:32;99589.88;;;25.23;11.87
15880;BME280;61999;51.514;14.614;2023-04-22T12:17:02;99588.03;;;23.51;13.45
15880;BME280;61999;51.514;14.614;2023-04-22T12:19:31;99573.41;;;26.25;13.78
15880;BME280;61999;51.514;14.614;2023-04-22T12:21:58;99576.09;;;26.37;11.28
15880;BME280;61999;51.514;14.614;2023-04-22T12:24:27;99572.53;;;27.84;11.47
15880;BME280;61999;51.514;14.614;2023-04-22T12:26:55;99565.31;;;27.73;10.65
15880;BME280;61999;51.514;14.614;2023-04-22T12:29:31;99560.16;;;27.55;10.33
15880;BME280;61999;51.514;14.614;2023-04-22T12:32:00;99567.03;;;28.62;10.49
15880;BME280;61999;51.514;14.614;2023-04-22T12:34:28;99570.44;;;28.30;9.97
15880;BME280;61999;51.514;14.614;2023-04-22T12:36:55;99569.31;;;28.97;10.21
15880;BME280;61999;51.514;14.614;2023-04-22T12:39:23;99562.72;;;29.20;9.70
15880;BME280;61999;51.514;14.614;2023-04-22T12:41:51;99562.94;;;30.21;9.63
15880;BME280;61999;51.514;14.614;2023-04-22T12:44:19;99559.03;;;30.06;9.28
15880;BME280;61999;51.514;14.614;2023-04-22T12:46:50;99561.22;;;30.15;9.86
15880;BME280;61999;51.514;14.614;2023-04-22T12:49:18;99559.59;;;30.97;9.49
15880;BME280;61999;51.514;14.614;2023-04-22T12:51:46;99552.22;;;31.74;8.90
15880;BME280;61999;51.514;14.614;2023-04-22T12:54:14;99547.72;;;32.24;8.80
15880;BME280;61999;51.514;14.614;2023-04-22T12:56:44;99553.84;;;30.68;8.65
15880;BME280;61999;51.514;14.614;2023-04-22T12:59:12;99546.28;;;31.31;9.23
15880;BME280;61999;51.514;14.614;2023-04-22T13:01:40;99549.56;;;31.33;8.66
15880;BME280;61999;51.514;14.614;2023-04-22T13:04:09;99536.84;;;32.14;8.70
15880;BME280;61999;51.514;14.614;2023-04-22T13:06:37;99545.00;;;33.13;8.42
15880;BME280;61999;51.514;14.614;2023-04-22T13:09:08;99528.16;;;33.01;8.22